sensor_id;sensor_type;location;lat;lon;timestamp;temperature;humidity
51837;DHT22;38941;53.254;6.600;2023-01-28T00:00:07;2.50;99.90
51837;DHT22;38941;53.254;6.600;2023-01-28T00:02:11;2.50;99.90
51837;DHT22;38941;53.254;6.600;2023-01-28T00:04:13;3.70;99.90
51837;DHT22;38941;53.254;6.600;2023-01-28T00:06:15;2.50;99.90
51837;DHT22;38941;53.254;6.600;2023-01-28T00:08:16;2.60;99.90
51837;DHT22;38941;53.254;6.600;2023-01-28T00:10:17;3.90;99.90
51837;DHT22;38941;53.254;6.600;2023-01-28T00:12:17;2.50;99.90
51837;DHT22;38941;53.254;6.600;2023-01-28T00:14:18;2.50;99.90
51837;DHT22;38941;53.254;6.600;2023-01-28T00:16:20;2.50;99.90
51837;DHT22;38941;53.254;6.600;2023-01-28T00:18:24;2.50;99.90
51837;DHT22;38941;53.254;6.600;2023-01-28T00:20:25;2.50;99.90
51837;DHT22;38941;53.254;6.600;2023-01-28T00:22:27;2.50;99.90
51837;DHT22;38941;53.254;6.600;2023-01-28T00:24:29;3.40;99.90
51837;DHT22;38941;53.254;6.600;2023-01-28T00:26:30;2.50;99.90
51837;DHT22;38941;53.254;6.600;2023-01-28T00:28:31;2.40;99.90
51837;DHT22;38941;53.254;6.600;2023-01-28T00:30:32;4.20;99.90
51837;DHT22;38941;53.254;6.600;2023-01-28T00:32:33;2.80;99.90
51837;DHT22;38941;53.254;6.600;2023-01-28T00:34:36;2.50;99.90
51837;DHT22;38941;53.254;6.600;2023-01-28T00:36:37;2.50;99.90
51837;DHT22;38941;53.254;6.600;2023-01-28T00:38:40;2.40;99.90
51837;DHT22;38941;53.254;6.600;2023-01-28T00:40:41;2.40;99.90
51837;DHT22;38941;53.254;6.600;2023-01-28T00:42:43;3.30;99.90
51837;DHT22;38941;53.254;6.600;2023-01-28T00:44:44;3.50;99.90
51837;DHT22;38941;53.254;6.600;2023-01-28T00:46:50;2.40;99.90
51837;DHT22;38941;53.254;6.600;2023-01-28T00:48:51;2.40;99.90
51837;DHT22;38941;53.254;6.600;2023-01-28T00:50:53;2.40;99.90
51837;DHT22;38941;53.254;6.600;2023-01-28T00:52:54;3.00;99.90
51837;DHT22;38941;53.254;6.600;2023-01-28T00:54:55;2.50;99.90
51837;DHT22;38941;53.254;6.600;2023-01-28T00:56:56;3.40;99.90
51837;DHT22;38941;53.254;6.600;2023-01-28T00:58:57;2.50;99.90
51837;DHT22;38941;53.254;6.600;2023-01-28T01:01:33;2.40;99.90
51837;DHT22;38941;53.254;6.600;2023-01-28T01:03:35;2.50;99.90
51837;DHT22;38941;53.254;6.600;2023-01-28T01:05:36;2.60;99.90
51837;DHT22;38941;53.254;6.600;2023-01-28T01:07:36;2.40;99.90
51837;DHT22;38941;53.254;6.600;2023-01-28T01:09:43;2.80;99.90
51837;DHT22;38941;53.254;6.600;2023-01-28T01:11:44;2.50;99.90
51837;DHT22;38941;53.254;6.600;2023-01-28T01:13:50;2.50;99.90
51837;DHT22;38941;53.254;6.600;2023-01-28T01:16:00;3.40;99.90
51837;DHT22;38941;53.254;6.600;2023-01-28T01:18:02;2.50;99.90
51837;DHT22;38941;53.254;6.600;2023-01-28T01:20:05;2.50;99.90
51837;DHT22;38941;53.254;6.600;2023-01-28T01:22:07;2.50;99.90
51837;DHT22;38941;53.254;6.600;2023-01-28T01:24:08;2.50;99.90
51837;DHT22;38941;53.254;6.600;2023-01-28T01:26:09;2.50;99.90
51837;DHT22;38941;53.254;6.600;2023-01-28T01:28:11;2.90;99.90
51837;DHT22;38941;53.254;6.600;2023-01-28T01:30:12;2.50;99.90
51837;DHT22;38941;53.254;6.600;2023-01-28T01:32:14;2.50;99.90
51837;DHT22;38941;53.254;6.600;2023-01-28T01:34:15;3.60;99.90
51837;DHT22;38941;53.254;6.600;2023-01-28T01:36:18;2.50;99.90
51837;DHT22;38941;53.254;6.600;2023-01-28T01:38:20;3.40;99.90
51837;DHT22;38941;53.254;6.600;2023-01-28T01:40:22;2.50;99.90
51837;DHT22;38941;53.254;6.600;2023-01-28T01:42:24;2.40;99.90
51837;DHT22;38941;53.254;6.600;2023-01-28T01:46:56;2.40;99.90
51837;DHT22;38941;53.254;6.600;2023-01-28T01:49:06;2.40;99.90
51837;DHT22;38941;53.254;6.600;2023-01-28T01:51:19;2.40;99.90
51837;DHT22;38941;53.254;6.600;2023-01-28T01:53:22;2.60;99.90
51837;DHT22;38941;53.254;6.600;2023-01-28T01:55:26;2.40;99.90
51837;DHT22;38941;53.254;6.600;2023-01-28T01:57:32;2.70;99.90
51837;DHT22;38941;53.254;6.600;2023-01-28T01:59:34;2.40;99.90
51837;DHT22;38941;53.254;6.600;2023-01-28T02:01:35;2.60;99.90
51837;DHT22;38941;53.254;6.600;2023-01-28T02:04:12;2.40;99.90
51837;DHT22;38941;53.254;6.600;2023-01-28T02:06:15;2.40;99.90
51837;DHT22;38941;53.254;6.600;2023-01-28T02:08:15;2.40;99.90
51837;DHT22;38941;53.254;6.600;2023-01-28T02:10:23;2.70;99.90
51837;DHT22;38941;53.254;6.600;2023-01-28T02:12:36;2.40;99.90
51837;DHT22;38941;53.254;6.600;2023-01-28T02:14:56;2.30;99.90
51837;DHT22;38941;53.254;6.600;2023-01-28T02:17:00;2.30;99.90
51837;DHT22;38941;53.254;6.600;2023-01-28T02:19:01;2.50;99.90
51837;DHT22;38941;53.254;6.600;2023-01-28T02:33:17;2.30;99.90
51837;DHT22;38941;53.254;6.600;2023-01-28T02:35:30;2.30;99.90
51837;DHT22;38941;53.254;6.600;2023-01-28T02:37:49;2.30;99.90
51837;DHT22;38941;53.254;6.600;2023-01-28T02:40:02;2.30;99.90
51837;DHT22;38941;53.254;6.600;2023-01-28T02:44:19;2.40;99.90
51837;DHT22;38941;53.254;6.600;2023-01-28T02:46:34;2.40;99.90
51837;DHT22;38941;53.254;6.600;2023-01-28T02:48:54;2.40;99.90
51837;DHT22;38941;53.254;6.600;2023-01-28T02:53:33;2.40;99.90
51837;DHT22;38941;53.254;6.600;2023-01-28T02:59:02;2.40;99.90
51837;DHT22;38941;53.254;6.600;2023-01-28T03:01:44;2.30;99.90
51837;DHT22;38941;53.254;6.600;2023-01-28T03:04:14;2.30;99.90
51837;DHT22;38941;53.254;6.600;2023-01-28T03:06:21;2.30;99.90
51837;DHT22;38941;53.254;6.600;2023-01-28T03:08:24;2.30;99.90
51837;DHT22;38941;53.254;6.600;2023-01-28T03:10:44;2.90;99.90
51837;DHT22;38941;53.254;6.600;2023-01-28T03:13:05;2.40;99.90
51837;DHT22;38941;53.254;6.600;2023-01-28T03:15:34;2.30;99.90
51837;DHT22;38941;53.254;6.600;2023-01-28T03:20:18;2.50;99.90
51837;DHT22;38941;53.254;6.600;2023-01-28T03:22:40;2.30;99.90
51837;DHT22;38941;53.254;6.600;2023-01-28T03:25:01;3.20;99.90
51837;DHT22;38941;53.254;6.600;2023-01-28T03:30:21;2.30;99.90
51837;DHT22;38941;53.254;6.600;2023-01-28T03:32:42;2.30;99.90
51837;DHT22;38941;53.254;6.600;2023-01-28T03:35:05;2.40;99.90
51837;DHT22;38941;53.254;6.600;2023-01-28T03:37:25;2.40;99.90
51837;DHT22;38941;53.254;6.600;2023-01-28T03:39:29;2.30;99.90
51837;DHT22;38941;53.254;6.600;2023-01-28T03:41:30;2.30;99.90
51837;DHT22;38941;53.254;6.600;2023-01-28T03:43:31;3.10;99.90
51837;DHT22;38941;53.254;6.600;2023-01-28T03:45:32;3.30;99.90
51837;DHT22;38941;53.254;6.600;2023-01-28T03:47:35;3.40;99.90
51837;DHT22;38941;53.254;6.600;2023-01-28T03:49:47;2.30;99.90
51837;DHT22;38941;53.254;6.600;2023-01-28T03:51:51;2.30;99.90
51837;DHT22;38941;53.254;6.600;2023-01-28T03:53:53;2.30;99.90
51837;DHT22;38941;53.254;6.600;2023-01-28T03:55:54;2.50;99.90
51837;DHT22;38941;53.254;6.600;2023-01-28T03:57:56;2.30;99.90
51837;DHT22;38941;53.254;6.600;2023-01-28T03:59:57;2.30;99.90
51837;DHT22;38941;53.254;6.600;2023-01-28T04:01:58;3.60;99.90
51837;DHT22;38941;53.254;6.600;2023-01-28T04:04:00;3.00;99.90
51837;DHT22;38941;53.254;6.600;2023-01-28T04:06:04;2.30;99.90
51837;DHT22;38941;53.254;6.600;2023-01-28T04:08:06;2.40;99.90
51837;DHT22;38941;53.254;6.600;2023-01-28T04:10:07;2.40;99.90
51837;DHT22;38941;53.254;6.600;2023-01-28T04:12:08;2.40;99.90
51837;DHT22;38941;53.254;6.600;2023-01-28T04:14:10;3.10;99.90
51837;DHT22;38941;53.254;6.600;2023-01-28T04:16:12;2.50;99.90
51837;DHT22;38941;53.254;6.600;2023-01-28T04:18:13;2.30;99.90
51837;DHT22;38941;53.254;6.600;2023-01-28T04:20:15;2.30;99.90
51837;DHT22;38941;53.254;6.600;2023-01-28T04:22:16;2.30;99.90
51837;DHT22;38941;53.254;6.600;2023-01-28T04:24:17;2.30;99.90
51837;DHT22;38941;53.254;6.600;2023-01-28T04:26:19;3.60;99.90
51837;DHT22;38941;53.254;6.600;2023-01-28T04:28:21;2.30;99.90
51837;DHT22;38941;53.254;6.600;2023-01-28T04:30:22;2.30;99.90
51837;DHT22;38941;53.254;6.600;2023-01-28T04:32:23;2.30;99.90
51837;DHT22;38941;53.254;6.600;2023-01-28T04:34:25;2.30;99.90
51837;DHT22;38941;53.254;6.600;2023-01-28T04:36:26;3.00;99.90
51837;DHT22;38941;53.254;6.600;2023-01-28T04:38:27;2.80;99.90
51837;DHT22;38941;53.254;6.600;2023-01-28T04:40:29;2.60;99.90
51837;DHT22;38941;53.254;6.600;2023-01-28T04:42:30;2.30;99.90
51837;DHT22;38941;53.254;6.600;2023-01-28T04:44:32;2.60;99.90
51837;DHT22;38941;53.254;6.600;2023-01-28T04:46:34;2.30;99.90
51837;DHT22;38941;53.254;6.600;2023-01-28T04:48:36;2.90;99.90
51837;DHT22;38941;53.254;6.600;2023-01-28T04:50:39;2.30;99.90
51837;DHT22;38941;53.254;6.600;2023-01-28T04:52:41;2.20;99.90
51837;DHT22;38941;53.254;6.600;2023-01-28T04:54:42;2.80;99.90
51837;DHT22;38941;53.254;6.600;2023-01-28T04:56:44;2.20;99.90
51837;DHT22;38941;53.254;6.600;2023-01-28T04:58:45;2.20;99.90
51837;DHT22;38941;53.254;6.600;2023-01-28T05:00:56;2.20;99.90
51837;DHT22;38941;53.254;6.600;2023-01-28T05:02:58;2.20;99.90
51837;DHT22;38941;53.254;6.600;2023-01-28T05:05:00;2.60;99.90
51837;DHT22;38941;53.254;6.600;2023-01-28T05:07:04;2.90;99.90
51837;DHT22;38941;53.254;6.600;2023-01-28T05:09:04;2.20;99.90
51837;DHT22;38941;53.254;6.600;2023-01-28T05:11:12;2.20;99.90
51837;DHT22;38941;53.254;6.600;2023-01-28T05:13:12;2.20;99.90
51837;DHT22;38941;53.254;6.600;2023-01-28T05:15:15;2.20;99.90
51837;DHT22;38941;53.254;6.600;2023-01-28T05:17:17;2.50;99.90
51837;DHT22;38941;53.254;6.600;2023-01-28T05:19:19;2.20;99.90
51837;DHT22;38941;53.254;6.600;2023-01-28T05:21:20;2.80;99.90
51837;DHT22;38941;53.254;6.600;2023-01-28T05:23:21;2.20;99.90
51837;DHT22;38941;53.254;6.600;2023-01-28T05:25:21;2.20;99.90
51837;DHT22;38941;53.254;6.600;2023-01-28T05:27:22;3.00;99.90
51837;DHT22;38941;53.254;6.600;2023-01-28T05:29:23;2.10;99.90
51837;DHT22;38941;53.254;6.600;2023-01-28T05:31:23;2.40;99.90
51837;DHT22;38941;53.254;6.600;2023-01-28T05:33:24;2.10;99.90
51837;DHT22;38941;53.254;6.600;2023-01-28T05:35:25;2.10;99.90
51837;DHT22;38941;53.254;6.600;2023-01-28T05:37:26;2.90;99.90
51837;DHT22;38941;53.254;6.600;2023-01-28T05:39:27;3.50;99.90
51837;DHT22;38941;53.254;6.600;2023-01-28T05:41:30;2.40;99.90
51837;DHT22;38941;53.254;6.600;2023-01-28T05:43:31;2.10;99.90
51837;DHT22;38941;53.254;6.600;2023-01-28T05:45:31;2.10;99.90
51837;DHT22;38941;53.254;6.600;2023-01-28T05:47:33;2.30;99.90
51837;DHT22;38941;53.254;6.600;2023-01-28T05:49:34;2.10;99.90
51837;DHT22;38941;53.254;6.600;2023-01-28T05:51:34;2.80;99.90
51837;DHT22;38941;53.254;6.600;2023-01-28T05:53:36;2.10;99.90
51837;DHT22;38941;53.254;6.600;2023-01-28T05:55:37;2.10;99.90
51837;DHT22;38941;53.254;6.600;2023-01-28T05:57:38;2.10;99.90
51837;DHT22;38941;53.254;6.600;2023-01-28T05:59:40;2.70;99.90
51837;DHT22;38941;53.254;6.600;2023-01-28T06:01:42;2.10;99.90
51837;DHT22;38941;53.254;6.600;2023-01-28T06:03:43;2.10;99.90
51837;DHT22;38941;53.254;6.600;2023-01-28T06:05:47;2.30;99.90
51837;DHT22;38941;53.254;6.600;2023-01-28T06:07:48;2.10;99.90
51837;DHT22;38941;53.254;6.600;2023-01-28T06:09:49;3.20;99.90
51837;DHT22;38941;53.254;6.600;2023-01-28T06:11:49;2.10;99.90
51837;DHT22;38941;53.254;6.600;2023-01-28T06:13:50;2.50;99.90
51837;DHT22;38941;53.254;6.600;2023-01-28T06:15:52;2.00;99.90
51837;DHT22;38941;53.254;6.600;2023-01-28T06:17:53;2.50;99.90
51837;DHT22;38941;53.254;6.600;2023-01-28T06:19:54;2.00;99.90
51837;DHT22;38941;53.254;6.600;2023-01-28T06:21:56;3.10;99.90
51837;DHT22;38941;53.254;6.600;2023-01-28T06:23:58;2.00;99.90
51837;DHT22;38941;53.254;6.600;2023-01-28T06:25:59;2.60;99.90
51837;DHT22;38941;53.254;6.600;2023-01-28T06:28:00;2.00;99.90
51837;DHT22;38941;53.254;6.600;2023-01-28T06:30:01;2.00;99.90
51837;DHT22;38941;53.254;6.600;2023-01-28T06:32:03;2.10;99.90
51837;DHT22;38941;53.254;6.600;2023-01-28T06:34:04;2.00;99.90
51837;DHT22;38941;53.254;6.600;2023-01-28T06:36:06;2.00;99.90
51837;DHT22;38941;53.254;6.600;2023-01-28T06:38:07;2.00;99.90
51837;DHT22;38941;53.254;6.600;2023-01-28T06:40:08;2.00;99.90
51837;DHT22;38941;53.254;6.600;2023-01-28T06:42:09;2.00;99.90
51837;DHT22;38941;53.254;6.600;2023-01-28T06:44:10;2.90;99.90
51837;DHT22;38941;53.254;6.600;2023-01-28T06:46:11;1.90;99.90
51837;DHT22;38941;53.254;6.600;2023-01-28T06:48:13;2.00;99.90
51837;DHT22;38941;53.254;6.600;2023-01-28T06:50:15;1.90;99.90
51837;DHT22;38941;53.254;6.600;2023-01-28T06:52:17;1.90;99.90
51837;DHT22;38941;53.254;6.600;2023-01-28T06:54:18;1.90;99.90
51837;DHT22;38941;53.254;6.600;2023-01-28T06:56:19;1.90;99.90
51837;DHT22;38941;53.254;6.600;2023-01-28T06:58:22;1.90;99.90
51837;DHT22;38941;53.254;6.600;2023-01-28T07:00:27;1.90;99.90
51837;DHT22;38941;53.254;6.600;2023-01-28T07:02:28;2.80;99.90
51837;DHT22;38941;53.254;6.600;2023-01-28T07:04:30;2.10;99.90
51837;DHT22;38941;53.254;6.600;2023-01-28T07:06:32;2.70;99.90
51837;DHT22;38941;53.254;6.600;2023-01-28T07:08:33;2.30;99.90
51837;DHT22;38941;53.254;6.600;2023-01-28T07:10:36;1.90;99.90
51837;DHT22;38941;53.254;6.600;2023-01-28T07:12:38;2.60;99.90
51837;DHT22;38941;53.254;6.600;2023-01-28T07:14:39;1.80;99.90
51837;DHT22;38941;53.254;6.600;2023-01-28T07:16:40;1.80;99.90
51837;DHT22;38941;53.254;6.600;2023-01-28T07:18:42;2.70;99.90
51837;DHT22;38941;53.254;6.600;2023-01-28T07:20:42;2.30;99.90
51837;DHT22;38941;53.254;6.600;2023-01-28T07:22:44;2.60;99.90
51837;DHT22;38941;53.254;6.600;2023-01-28T07:24:45;2.50;99.90
51837;DHT22;38941;53.254;6.600;2023-01-28T07:26:48;2.40;99.90
51837;DHT22;38941;53.254;6.600;2023-01-28T07:28:49;2.40;99.90
51837;DHT22;38941;53.254;6.600;2023-01-28T07:30:50;3.10;99.90
51837;DHT22;38941;53.254;6.600;2023-01-28T07:32:54;1.50;99.90
51837;DHT22;38941;53.254;6.600;2023-01-28T07:34:55;1.50;99.90
51837;DHT22;38941;53.254;6.600;2023-01-28T07:36:57;1.50;99.90
51837;DHT22;38941;53.254;6.600;2023-01-28T07:38:58;1.50;99.90
51837;DHT22;38941;53.254;6.600;2023-01-28T07:41:00;1.50;99.90
51837;DHT22;38941;53.254;6.600;2023-01-28T07:43:02;1.50;99.90
51837;DHT22;38941;53.254;6.600;2023-01-28T07:45:04;1.40;99.90
51837;DHT22;38941;53.254;6.600;2023-01-28T07:47:06;1.40;99.90
51837;DHT22;38941;53.254;6.600;2023-01-28T07:49:07;2.50;99.90
51837;DHT22;38941;53.254;6.600;2023-01-28T07:51:08;2.20;99.90
51837;DHT22;38941;53.254;6.600;2023-01-28T07:53:11;1.40;99.90
51837;DHT22;38941;53.254;6.600;2023-01-28T07:55:11;1.30;99.90
51837;DHT22;38941;53.254;6.600;2023-01-28T07:57:17;1.60;99.90
51837;DHT22;38941;53.254;6.600;2023-01-28T07:59:22;1.40;99.90
51837;DHT22;38941;53.254;6.600;2023-01-28T08:01:25;1.40;99.90
51837;DHT22;38941;53.254;6.600;2023-01-28T08:03:27;1.50;99.90
51837;DHT22;38941;53.254;6.600;2023-01-28T08:05:43;1.60;99.90
51837;DHT22;38941;53.254;6.600;2023-01-28T08:07:47;1.70;99.90
51837;DHT22;38941;53.254;6.600;2023-01-28T08:09:48;1.60;99.90
51837;DHT22;38941;53.254;6.600;2023-01-28T08:11:49;1.90;99.90
51837;DHT22;38941;53.254;6.600;2023-01-28T08:13:51;1.60;99.90
51837;DHT22;38941;53.254;6.600;2023-01-28T08:15:54;2.50;99.90
51837;DHT22;38941;53.254;6.600;2023-01-28T08:17:57;1.80;99.90
51837;DHT22;38941;53.254;6.600;2023-01-28T08:20:04;1.50;99.90
51837;DHT22;38941;53.254;6.600;2023-01-28T08:22:07;1.50;99.90
51837;DHT22;38941;53.254;6.600;2023-01-28T08:24:08;1.60;99.90
51837;DHT22;38941;53.254;6.600;2023-01-28T08:26:08;1.60;99.90
51837;DHT22;38941;53.254;6.600;2023-01-28T08:28:11;2.40;99.90
51837;DHT22;38941;53.254;6.600;2023-01-28T08:30:12;1.80;99.90
51837;DHT22;38941;53.254;6.600;2023-01-28T08:32:13;1.80;99.90
51837;DHT22;38941;53.254;6.600;2023-01-28T08:34:14;1.80;99.90
51837;DHT22;38941;53.254;6.600;2023-01-28T08:36:15;1.90;99.90
51837;DHT22;38941;53.254;6.600;2023-01-28T08:38:16;1.90;99.90
51837;DHT22;38941;53.254;6.600;2023-01-28T08:40:19;1.90;99.90
51837;DHT22;38941;53.254;6.600;2023-01-28T08:42:22;1.90;99.90
51837;DHT22;38941;53.254;6.600;2023-01-28T08:44:22;1.90;99.90
51837;DHT22;38941;53.254;6.600;2023-01-28T08:46:23;2.10;99.90
51837;DHT22;38941;53.254;6.600;2023-01-28T08:48:24;2.80;99.90
51837;DHT22;38941;53.254;6.600;2023-01-28T08:50:27;2.30;99.90
51837;DHT22;38941;53.254;6.600;2023-01-28T08:52:29;2.40;99.90
51837;DHT22;38941;53.254;6.600;2023-01-28T08:54:32;2.70;99.90
51837;DHT22;38941;53.254;6.600;2023-01-28T08:56:32;3.20;99.90
51837;DHT22;38941;53.254;6.600;2023-01-28T08:58:35;3.70;99.90
51837;DHT22;38941;53.254;6.600;2023-01-28T09:00:36;4.40;99.90
51837;DHT22;38941;53.254;6.600;2023-01-28T09:02:37;4.30;99.90
51837;DHT22;38941;53.254;6.600;2023-01-28T09:04:38;4.60;99.90
51837;DHT22;38941;53.254;6.600;2023-01-28T09:06:40;4.70;99.90
51837;DHT22;38941;53.254;6.600;2023-01-28T09:08:40;5.10;99.90
51837;DHT22;38941;53.254;6.600;2023-01-28T09:10:41;5.20;99.90
51837;DHT22;38941;53.254;6.600;2023-01-28T09:12:43;5.20;99.90
51837;DHT22;38941;53.254;6.600;2023-01-28T09:14:44;5.00;99.90
51837;DHT22;38941;53.254;6.600;2023-01-28T09:16:44;5.20;99.90
51837;DHT22;38941;53.254;6.600;2023-01-28T09:18:45;5.60;99.90
51837;DHT22;38941;53.254;6.600;2023-01-28T09:20:47;6.10;99.90
51837;DHT22;38941;53.254;6.600;2023-01-28T09:22:48;6.40;99.90
51837;DHT22;38941;53.254;6.600;2023-01-28T09:24:49;7.00;99.90
51837;DHT22;38941;53.254;6.600;2023-01-28T09:26:49;7.70;99.90
51837;DHT22;38941;53.254;6.600;2023-01-28T09:28:51;8.00;99.90
51837;DHT22;38941;53.254;6.600;2023-01-28T09:30:52;8.60;99.90
51837;DHT22;38941;53.254;6.600;2023-01-28T09:32:53;9.10;99.90
51837;DHT22;38941;53.254;6.600;2023-01-28T09:34:54;9.90;99.90
51837;DHT22;38941;53.254;6.600;2023-01-28T09:36:55;10.10;99.90
51837;DHT22;38941;53.254;6.600;2023-01-28T09:38:56;9.80;99.90
51837;DHT22;38941;53.254;6.600;2023-01-28T09:40:57;9.00;99.90
51837;DHT22;38941;53.254;6.600;2023-01-28T09:43:15;8.30;99.90
51837;DHT22;38941;53.254;6.600;2023-01-28T09:45:39;8.30;99.90
51837;DHT22;38941;53.254;6.600;2023-01-28T09:47:56;8.60;99.90
51837;DHT22;38941;53.254;6.600;2023-01-28T09:50:04;9.30;99.90
51837;DHT22;38941;53.254;6.600;2023-01-28T09:52:12;9.00;99.90
51837;DHT22;38941;53.254;6.600;2023-01-28T09:56:46;8.20;99.90
51837;DHT22;38941;53.254;6.600;2023-01-28T09:58:50;6.90;99.90
51837;DHT22;38941;53.254;6.600;2023-01-28T10:01:05;6.70;99.90
51837;DHT22;38941;53.254;6.600;2023-01-28T10:03:51;7.30;99.90
51837;DHT22;38941;53.254;6.600;2023-01-28T10:06:24;8.10;99.90
51837;DHT22;38941;53.254;6.600;2023-01-28T10:08:33;7.50;99.90
51837;DHT22;38941;53.254;6.600;2023-01-28T10:11:02;6.80;99.90
51837;DHT22;38941;53.254;6.600;2023-01-28T10:15:36;6.40;99.90
51837;DHT22;38941;53.254;6.600;2023-01-28T10:17:44;6.60;99.90
51837;DHT22;38941;53.254;6.600;2023-01-28T10:19:56;6.80;99.90
51837;DHT22;38941;53.254;6.600;2023-01-28T10:22:06;6.90;99.90
51837;DHT22;38941;53.254;6.600;2023-01-28T10:24:40;6.90;99.90
51837;DHT22;38941;53.254;6.600;2023-01-28T10:26:41;7.20;99.90
51837;DHT22;38941;53.254;6.600;2023-01-28T10:28:42;7.50;99.90
51837;DHT22;38941;53.254;6.600;2023-01-28T10:30:46;7.70;99.90
51837;DHT22;38941;53.254;6.600;2023-01-28T10:32:59;7.90;99.90
51837;DHT22;38941;53.254;6.600;2023-01-28T10:35:02;7.90;99.90
51837;DHT22;38941;53.254;6.600;2023-01-28T10:37:04;7.80;99.90
51837;DHT22;38941;53.254;6.600;2023-01-28T10:39:04;7.60;99.90
51837;DHT22;38941;53.254;6.600;2023-01-28T10:41:10;7.40;99.90
51837;DHT22;38941;53.254;6.600;2023-01-28T10:43:12;7.20;99.90
51837;DHT22;38941;53.254;6.600;2023-01-28T10:45:23;7.10;99.90
51837;DHT22;38941;53.254;6.600;2023-01-28T10:47:41;6.80;99.90
51837;DHT22;38941;53.254;6.600;2023-01-28T10:49:48;6.70;99.90
51837;DHT22;38941;53.254;6.600;2023-01-28T10:51:58;6.70;99.90
51837;DHT22;38941;53.254;6.600;2023-01-28T10:54:00;6.70;99.90
51837;DHT22;38941;53.254;6.600;2023-01-28T10:56:03;6.80;99.90
51837;DHT22;38941;53.254;6.600;2023-01-28T10:58:18;6.80;99.90
51837;DHT22;38941;53.254;6.600;2023-01-28T11:00:22;7.00;99.90
51837;DHT22;38941;53.254;6.600;2023-01-28T11:02:32;7.20;99.90
51837;DHT22;38941;53.254;6.600;2023-01-28T11:04:37;7.50;99.90
51837;DHT22;38941;53.254;6.600;2023-01-28T11:06:38;7.50;99.90
51837;DHT22;38941;53.254;6.600;2023-01-28T11:08:43;7.50;99.90
51837;DHT22;38941;53.254;6.600;2023-01-28T11:10:46;7.50;99.90
51837;DHT22;38941;53.254;6.600;2023-01-28T11:12:57;7.30;99.90
51837;DHT22;38941;53.254;6.600;2023-01-28T11:15:05;7.20;99.90
51837;DHT22;38941;53.254;6.600;2023-01-28T11:17:15;7.10;99.90
51837;DHT22;38941;53.254;6.600;2023-01-28T11:19:19;7.00;99.90
51837;DHT22;38941;53.254;6.600;2023-01-28T11:21:25;6.80;99.90
51837;DHT22;38941;53.254;6.600;2023-01-28T11:23:29;6.80;99.90
51837;DHT22;38941;53.254;6.600;2023-01-28T11:25:35;6.60;99.90
51837;DHT22;38941;53.254;6.600;2023-01-28T11:27:37;6.50;99.90
51837;DHT22;38941;53.254;6.600;2023-01-28T11:29:39;6.40;99.90
51837;DHT22;38941;53.254;6.600;2023-01-28T11:31:42;6.30;99.90
51837;DHT22;38941;53.254;6.600;2023-01-28T11:33:56;6.20;99.90
51837;DHT22;38941;53.254;6.600;2023-01-28T11:36:05;6.30;99.90
51837;DHT22;38941;53.254;6.600;2023-01-28T11:38:20;6.30;99.90
51837;DHT22;38941;53.254;6.600;2023-01-28T11:40:21;6.40;99.90
51837;DHT22;38941;53.254;6.600;2023-01-28T11:42:22;6.40;99.90
51837;DHT22;38941;53.254;6.600;2023-01-28T11:44:25;6.40;99.90
51837;DHT22;38941;53.254;6.600;2023-01-28T11:51:13;6.30;99.90
51837;DHT22;38941;53.254;6.600;2023-01-28T11:58:14;5.90;99.90
51837;DHT22;38941;53.254;6.600;2023-01-28T12:14:50;5.70;99.90
51837;DHT22;38941;53.254;6.600;2023-01-28T12:19:21;5.70;99.90
51837;DHT22;38941;53.254;6.600;2023-01-28T12:24:15;5.80;99.90
51837;DHT22;38941;53.254;6.600;2023-01-28T12:26:48;5.80;99.90
51837;DHT22;38941;53.254;6.600;2023-01-28T12:29:26;5.80;99.90
51837;DHT22;38941;53.254;6.600;2023-01-28T12:33:50;6.50;99.90
51837;DHT22;38941;53.254;6.600;2023-01-28T12:36:02;6.80;99.90
51837;DHT22;38941;53.254;6.600;2023-01-28T12:45:46;8.30;99.90
51837;DHT22;38941;53.254;6.600;2023-01-28T12:47:54;8.70;99.90
51837;DHT22;38941;53.254;6.600;2023-01-28T12:50:04;9.00;99.90
51837;DHT22;38941;53.254;6.600;2023-01-28T12:52:26;9.30;99.90
51837;DHT22;38941;53.254;6.600;2023-01-28T12:56:53;9.80;99.90
51837;DHT22;38941;53.254;6.600;2023-01-28T13:02:20;10.10;99.90
51837;DHT22;38941;53.254;6.600;2023-01-28T13:06:42;10.40;99.90
51837;DHT22;38941;53.254;6.600;2023-01-28T13:08:41;10.40;99.90
51837;DHT22;38941;53.254;6.600;2023-01-28T13:10:43;10.40;99.90
51837;DHT22;38941;53.254;6.600;2023-01-28T13:12:44;10.20;99.90
51837;DHT22;38941;53.254;6.600;2023-01-28T13:14:47;10.00;99.90
51837;DHT22;38941;53.254;6.600;2023-01-28T13:16:48;9.90;99.90
51837;DHT22;38941;53.254;6.600;2023-01-28T13:18:49;9.40;99.90
51837;DHT22;38941;53.254;6.600;2023-01-28T13:20:50;9.10;99.90
51837;DHT22;38941;53.254;6.600;2023-01-28T13:23:00;8.80;99.90
51837;DHT22;38941;53.254;6.600;2023-01-28T13:25:24;8.50;99.90
51837;DHT22;38941;53.254;6.600;2023-01-28T13:27:27;8.30;99.90
51837;DHT22;38941;53.254;6.600;2023-01-28T13:29:32;8.10;99.90
51837;DHT22;38941;53.254;6.600;2023-01-28T13:31:38;7.90;99.90
51837;DHT22;38941;53.254;6.600;2023-01-28T13:33:42;7.70;99.90
51837;DHT22;38941;53.254;6.600;2023-01-28T13:35:52;7.70;99.90
51837;DHT22;38941;53.254;6.600;2023-01-28T13:37:54;7.50;99.90
51837;DHT22;38941;53.254;6.600;2023-01-28T13:40:06;7.60;99.90
51837;DHT22;38941;53.254;6.600;2023-01-28T13:42:21;7.50;99.90
51837;DHT22;38941;53.254;6.600;2023-01-28T13:44:29;7.40;99.90
51837;DHT22;38941;53.254;6.600;2023-01-28T13:46:30;7.40;99.90
51837;DHT22;38941;53.254;6.600;2023-01-28T13:50:42;7.30;99.90
51837;DHT22;38941;53.254;6.600;2023-01-28T13:52:54;7.30;99.90
51837;DHT22;38941;53.254;6.600;2023-01-28T14:04:32;7.00;99.90
51837;DHT22;38941;53.254;6.600;2023-01-28T14:09:22;6.90;99.90
51837;DHT22;38941;53.254;6.600;2023-01-28T14:16:32;6.70;99.90
51837;DHT22;38941;53.254;6.600;2023-01-28T14:18:38;6.70;99.90
51837;DHT22;38941;53.254;6.600;2023-01-28T14:20:45;6.60;99.90
51837;DHT22;38941;53.254;6.600;2023-01-28T14:22:48;6.60;99.90
51837;DHT22;38941;53.254;6.600;2023-01-28T14:24:49;6.60;99.90
51837;DHT22;38941;53.254;6.600;2023-01-28T14:29:20;6.50;99.90
51837;DHT22;38941;53.254;6.600;2023-01-28T14:31:27;6.50;99.90
51837;DHT22;38941;53.254;6.600;2023-01-28T14:33:31;6.50;99.90
51837;DHT22;38941;53.254;6.600;2023-01-28T14:35:34;6.50;99.90
51837;DHT22;38941;53.254;6.600;2023-01-28T14:37:38;6.50;99.90
51837;DHT22;38941;53.254;6.600;2023-01-28T14:39:52;6.40;99.90
51837;DHT22;38941;53.254;6.600;2023-01-28T14:41:56;6.20;99.90
51837;DHT22;38941;53.254;6.600;2023-01-28T14:43:57;6.40;99.90
51837;DHT22;38941;53.254;6.600;2023-01-28T14:46:27;6.50;99.90
51837;DHT22;38941;53.254;6.600;2023-01-28T14:57:56;6.30;99.90
51837;DHT22;38941;53.254;6.600;2023-01-28T14:59:57;6.30;99.90
51837;DHT22;38941;53.254;6.600;2023-01-28T15:02:00;6.30;99.90
51837;DHT22;38941;53.254;6.600;2023-01-28T15:04:02;6.20;99.90
51837;DHT22;38941;53.254;6.600;2023-01-28T15:06:11;6.10;99.90
51837;DHT22;38941;53.254;6.600;2023-01-28T15:08:22;6.10;99.90
51837;DHT22;38941;53.254;6.600;2023-01-28T15:10:29;6.10;99.90
51837;DHT22;38941;53.254;6.600;2023-01-28T15:12:37;6.10;99.90